sensor_id;sensor_type;location;lat;lon;timestamp;temperature;humidity
16263;DHT22;8239;48.594;8.598;2023-05-02T00:01:20;5.60;99.90
16263;DHT22;8239;48.594;8.598;2023-05-02T00:03:47;5.50;99.90
16263;DHT22;8239;48.594;8.598;2023-05-02T00:06:14;5.40;99.90
16263;DHT22;8239;48.594;8.598;2023-05-02T00:08:41;5.40;99.90
16263;DHT22;8239;48.594;8.598;2023-05-02T00:11:08;5.30;99.90
16263;DHT22;8239;48.594;8.598;2023-05-02T00:13:35;5.20;99.90
16263;DHT22;8239;48.594;8.598;2023-05-02T00:16:03;5.10;99.90
16263;DHT22;8239;48.594;8.598;2023-05-02T00:18:32;5.00;99.90
16263;DHT22;8239;48.594;8.598;2023-05-02T00:20:59;5.00;99.90
16263;DHT22;8239;48.594;8.598;2023-05-02T00:23:26;5.00;99.90
16263;DHT22;8239;48.594;8.598;2023-05-02T00:25:53;5.00;99.90
16263;DHT22;8239;48.594;8.598;2023-05-02T00:28:20;4.90;99.90
16263;DHT22;8239;48.594;8.598;2023-05-02T00:30:47;4.90;99.90
16263;DHT22;8239;48.594;8.598;2023-05-02T00:33:14;5.00;99.90
16263;DHT22;8239;48.594;8.598;2023-05-02T00:35:42;5.00;99.90
16263;DHT22;8239;48.594;8.598;2023-05-02T00:38:09;4.90;99.90
16263;DHT22;8239;48.594;8.598;2023-05-02T00:40:43;4.90;99.90
16263;DHT22;8239;48.594;8.598;2023-05-02T00:43:11;4.90;99.90
16263;DHT22;8239;48.594;8.598;2023-05-02T00:45:38;4.90;99.90
16263;DHT22;8239;48.594;8.598;2023-05-02T00:48:06;4.90;99.90
16263;DHT22;8239;48.594;8.598;2023-05-02T00:50:35;4.90;99.90
16263;DHT22;8239;48.594;8.598;2023-05-02T00:53:04;4.90;99.90
16263;DHT22;8239;48.594;8.598;2023-05-02T00:55:31;4.90;99.90
16263;DHT22;8239;48.594;8.598;2023-05-02T00:57:59;5.00;99.90
16263;DHT22;8239;48.594;8.598;2023-05-02T01:00:31;5.00;99.90
16263;DHT22;8239;48.594;8.598;2023-05-02T01:03:10;5.00;99.90
16263;DHT22;8239;48.594;8.598;2023-05-02T01:05:48;5.10;99.90
16263;DHT22;8239;48.594;8.598;2023-05-02T01:08:24;5.20;99.90
16263;DHT22;8239;48.594;8.598;2023-05-02T01:11:02;5.20;99.90
16263;DHT22;8239;48.594;8.598;2023-05-02T01:13:32;5.30;99.90
16263;DHT22;8239;48.594;8.598;2023-05-02T01:16:02;5.30;99.90
16263;DHT22;8239;48.594;8.598;2023-05-02T01:18:32;5.40;99.90
16263;DHT22;8239;48.594;8.598;2023-05-02T01:21:05;5.40;99.90
16263;DHT22;8239;48.594;8.598;2023-05-02T01:23:42;5.40;99.90
16263;DHT22;8239;48.594;8.598;2023-05-02T01:26:26;5.40;99.90
16263;DHT22;8239;48.594;8.598;2023-05-02T01:29:01;5.40;99.90
16263;DHT22;8239;48.594;8.598;2023-05-02T01:31:32;5.30;99.90
16263;DHT22;8239;48.594;8.598;2023-05-02T01:34:00;5.20;99.90
16263;DHT22;8239;48.594;8.598;2023-05-02T01:36:30;5.20;99.90
16263;DHT22;8239;48.594;8.598;2023-05-02T01:38:59;5.10;99.90
16263;DHT22;8239;48.594;8.598;2023-05-02T01:41:30;5.00;99.90
16263;DHT22;8239;48.594;8.598;2023-05-02T01:44:00;5.00;99.90
16263;DHT22;8239;48.594;8.598;2023-05-02T01:46:30;4.90;99.90
16263;DHT22;8239;48.594;8.598;2023-05-02T01:49:01;4.80;99.90
16263;DHT22;8239;48.594;8.598;2023-05-02T01:51:31;4.70;99.90
16263;DHT22;8239;48.594;8.598;2023-05-02T01:54:00;4.70;99.90
16263;DHT22;8239;48.594;8.598;2023-05-02T01:56:31;4.60;99.90
16263;DHT22;8239;48.594;8.598;2023-05-02T01:59:01;4.50;99.90
16263;DHT22;8239;48.594;8.598;2023-05-02T02:01:30;4.40;99.90
16263;DHT22;8239;48.594;8.598;2023-05-02T02:03:59;4.40;99.90
16263;DHT22;8239;48.594;8.598;2023-05-02T02:06:27;4.40;99.90
16263;DHT22;8239;48.594;8.598;2023-05-02T02:08:54;4.40;99.90
16263;DHT22;8239;48.594;8.598;2023-05-02T02:11:25;4.30;99.90
16263;DHT22;8239;48.594;8.598;2023-05-02T02:14:00;4.20;99.90
16263;DHT22;8239;48.594;8.598;2023-05-02T02:16:32;4.20;99.90
16263;DHT22;8239;48.594;8.598;2023-05-02T02:19:05;4.20;99.90
16263;DHT22;8239;48.594;8.598;2023-05-02T02:21:34;4.10;99.90
16263;DHT22;8239;48.594;8.598;2023-05-02T02:24:04;4.00;99.90
16263;DHT22;8239;48.594;8.598;2023-05-02T02:26:32;4.00;99.90
16263;DHT22;8239;48.594;8.598;2023-05-02T02:29:02;4.00;99.90
16263;DHT22;8239;48.594;8.598;2023-05-02T02:31:30;4.00;99.90
16263;DHT22;8239;48.594;8.598;2023-05-02T02:33:57;4.00;99.90
16263;DHT22;8239;48.594;8.598;2023-05-02T02:36:30;4.00;99.90
16263;DHT22;8239;48.594;8.598;2023-05-02T02:39:07;4.00;99.90
16263;DHT22;8239;48.594;8.598;2023-05-02T02:41:41;4.00;99.90
16263;DHT22;8239;48.594;8.598;2023-05-02T02:44:24;3.90;99.90
16263;DHT22;8239;48.594;8.598;2023-05-02T02:47:01;3.90;99.90
16263;DHT22;8239;48.594;8.598;2023-05-02T02:49:37;3.90;99.90
16263;DHT22;8239;48.594;8.598;2023-05-02T02:52:11;3.90;99.90
16263;DHT22;8239;48.594;8.598;2023-05-02T02:54:45;3.80;99.90
16263;DHT22;8239;48.594;8.598;2023-05-02T02:57:17;3.80;99.90
16263;DHT22;8239;48.594;8.598;2023-05-02T02:59:53;3.80;99.90
16263;DHT22;8239;48.594;8.598;2023-05-02T03:02:27;3.70;99.90
16263;DHT22;8239;48.594;8.598;2023-05-02T03:04:57;3.70;99.90
16263;DHT22;8239;48.594;8.598;2023-05-02T03:07:26;3.70;99.90
16263;DHT22;8239;48.594;8.598;2023-05-02T03:09:54;3.70;99.90
16263;DHT22;8239;48.594;8.598;2023-05-02T03:12:21;3.70;99.90
16263;DHT22;8239;48.594;8.598;2023-05-02T03:14:49;3.70;99.90
16263;DHT22;8239;48.594;8.598;2023-05-02T03:17:16;3.70;99.90
16263;DHT22;8239;48.594;8.598;2023-05-02T03:19:44;3.70;99.90
16263;DHT22;8239;48.594;8.598;2023-05-02T03:22:11;3.70;99.90
16263;DHT22;8239;48.594;8.598;2023-05-02T03:24:38;3.70;99.90
16263;DHT22;8239;48.594;8.598;2023-05-02T03:27:06;3.70;99.90
16263;DHT22;8239;48.594;8.598;2023-05-02T03:29:33;3.70;99.90
16263;DHT22;8239;48.594;8.598;2023-05-02T03:32:01;3.70;99.90
16263;DHT22;8239;48.594;8.598;2023-05-02T03:34:28;3.70;99.90
16263;DHT22;8239;48.594;8.598;2023-05-02T03:36:55;3.70;99.90
16263;DHT22;8239;48.594;8.598;2023-05-02T03:39:22;3.70;99.90
16263;DHT22;8239;48.594;8.598;2023-05-02T03:41:49;3.60;99.90
16263;DHT22;8239;48.594;8.598;2023-05-02T03:44:16;3.60;99.90
16263;DHT22;8239;48.594;8.598;2023-05-02T03:46:43;3.60;99.90
16263;DHT22;8239;48.594;8.598;2023-05-02T03:49:11;3.60;99.90
16263;DHT22;8239;48.594;8.598;2023-05-02T03:51:38;3.60;99.90
16263;DHT22;8239;48.594;8.598;2023-05-02T03:54:05;3.60;99.90
16263;DHT22;8239;48.594;8.598;2023-05-02T03:56:32;3.60;99.90
16263;DHT22;8239;48.594;8.598;2023-05-02T03:58:59;3.60;99.90
16263;DHT22;8239;48.594;8.598;2023-05-02T04:01:26;3.70;99.90
16263;DHT22;8239;48.594;8.598;2023-05-02T04:03:53;3.70;99.90
16263;DHT22;8239;48.594;8.598;2023-05-02T04:06:21;3.80;99.90
16263;DHT22;8239;48.594;8.598;2023-05-02T04:08:48;3.90;99.90
16263;DHT22;8239;48.594;8.598;2023-05-02T04:11:15;4.00;99.90
16263;DHT22;8239;48.594;8.598;2023-05-02T04:13:42;4.10;99.90
16263;DHT22;8239;48.594;8.598;2023-05-02T04:16:09;4.20;99.90
16263;DHT22;8239;48.594;8.598;2023-05-02T04:18:36;4.30;99.90
16263;DHT22;8239;48.594;8.598;2023-05-02T04:21:03;4.40;99.90
16263;DHT22;8239;48.594;8.598;2023-05-02T04:23:32;4.50;99.90
16263;DHT22;8239;48.594;8.598;2023-05-02T04:25:59;4.60;99.90
16263;DHT22;8239;48.594;8.598;2023-05-02T04:28:26;4.70;99.90
16263;DHT22;8239;48.594;8.598;2023-05-02T04:30:53;4.80;99.90
16263;DHT22;8239;48.594;8.598;2023-05-02T04:33:20;4.90;99.90
16263;DHT22;8239;48.594;8.598;2023-05-02T04:35:47;5.00;99.90
16263;DHT22;8239;48.594;8.598;2023-05-02T04:38:14;5.10;99.90
16263;DHT22;8239;48.594;8.598;2023-05-02T04:40:43;5.20;99.90
16263;DHT22;8239;48.594;8.598;2023-05-02T04:43:10;5.20;99.90
16263;DHT22;8239;48.594;8.598;2023-05-02T04:45:37;5.30;99.90
16263;DHT22;8239;48.594;8.598;2023-05-02T04:48:05;5.30;99.90
16263;DHT22;8239;48.594;8.598;2023-05-02T04:50:31;5.40;99.90
16263;DHT22;8239;48.594;8.598;2023-05-02T04:52:59;5.40;99.90
16263;DHT22;8239;48.594;8.598;2023-05-02T04:55:26;5.50;99.90
16263;DHT22;8239;48.594;8.598;2023-05-02T04:57:54;5.50;99.90
16263;DHT22;8239;48.594;8.598;2023-05-02T05:00:21;5.60;99.90
16263;DHT22;8239;48.594;8.598;2023-05-02T05:02:48;5.60;99.90
16263;DHT22;8239;48.594;8.598;2023-05-02T05:05:16;5.70;99.90
16263;DHT22;8239;48.594;8.598;2023-05-02T05:07:43;5.70;99.90
16263;DHT22;8239;48.594;8.598;2023-05-02T05:10:10;5.80;99.90
16263;DHT22;8239;48.594;8.598;2023-05-02T05:12:37;5.90;99.90
16263;DHT22;8239;48.594;8.598;2023-05-02T05:15:06;6.00;99.90
16263;DHT22;8239;48.594;8.598;2023-05-02T05:17:33;6.20;99.90
16263;DHT22;8239;48.594;8.598;2023-05-02T05:20:00;6.30;99.90
16263;DHT22;8239;48.594;8.598;2023-05-02T05:22:27;6.40;99.90
16263;DHT22;8239;48.594;8.598;2023-05-02T05:24:55;6.50;99.90
16263;DHT22;8239;48.594;8.598;2023-05-02T05:27:22;6.60;99.90
16263;DHT22;8239;48.594;8.598;2023-05-02T05:29:49;6.60;99.90
16263;DHT22;8239;48.594;8.598;2023-05-02T05:32:17;6.70;99.90
16263;DHT22;8239;48.594;8.598;2023-05-02T05:34:44;6.70;99.90
16263;DHT22;8239;48.594;8.598;2023-05-02T05:37:11;6.60;99.90
16263;DHT22;8239;48.594;8.598;2023-05-02T05:39:38;6.60;99.90
16263;DHT22;8239;48.594;8.598;2023-05-02T05:42:05;6.70;99.90
16263;DHT22;8239;48.594;8.598;2023-05-02T05:44:34;6.70;99.90
16263;DHT22;8239;48.594;8.598;2023-05-02T05:47:01;6.80;99.90
16263;DHT22;8239;48.594;8.598;2023-05-02T05:49:30;6.80;99.90
16263;DHT22;8239;48.594;8.598;2023-05-02T05:51:57;6.70;99.90
16263;DHT22;8239;48.594;8.598;2023-05-02T05:54:24;6.70;99.90
16263;DHT22;8239;48.594;8.598;2023-05-02T05:56:51;6.70;99.90
16263;DHT22;8239;48.594;8.598;2023-05-02T05:59:18;6.70;99.90
16263;DHT22;8239;48.594;8.598;2023-05-02T06:01:45;6.70;99.90
16263;DHT22;8239;48.594;8.598;2023-05-02T06:04:12;6.80;99.90
16263;DHT22;8239;48.594;8.598;2023-05-02T06:06:41;6.80;99.90
16263;DHT22;8239;48.594;8.598;2023-05-02T06:09:08;6.80;99.90
16263;DHT22;8239;48.594;8.598;2023-05-02T06:11:35;6.90;99.90
16263;DHT22;8239;48.594;8.598;2023-05-02T06:14:03;6.90;99.90
16263;DHT22;8239;48.594;8.598;2023-05-02T06:16:30;7.00;99.90
16263;DHT22;8239;48.594;8.598;2023-05-02T06:18:57;7.00;99.90
16263;DHT22;8239;48.594;8.598;2023-05-02T06:21:24;7.00;99.90
16263;DHT22;8239;48.594;8.598;2023-05-02T06:23:52;7.00;99.90
16263;DHT22;8239;48.594;8.598;2023-05-02T06:26:20;7.10;99.90
16263;DHT22;8239;48.594;8.598;2023-05-02T06:28:47;7.20;99.90
16263;DHT22;8239;48.594;8.598;2023-05-02T06:31:14;7.30;99.90
16263;DHT22;8239;48.594;8.598;2023-05-02T06:33:41;7.50;99.90
16263;DHT22;8239;48.594;8.598;2023-05-02T06:36:08;7.70;99.90
16263;DHT22;8239;48.594;8.598;2023-05-02T06:38:35;7.90;99.90
16263;DHT22;8239;48.594;8.598;2023-05-02T06:41:03;8.00;99.90
16263;DHT22;8239;48.594;8.598;2023-05-02T06:43:30;8.00;99.90
16263;DHT22;8239;48.594;8.598;2023-05-02T06:46:00;8.20;99.90
16263;DHT22;8239;48.594;8.598;2023-05-02T06:48:27;8.40;99.90
16263;DHT22;8239;48.594;8.598;2023-05-02T06:50:54;8.70;99.90
16263;DHT22;8239;48.594;8.598;2023-05-02T06:53:21;8.90;99.90
16263;DHT22;8239;48.594;8.598;2023-05-02T06:55:49;9.20;99.90
16263;DHT22;8239;48.594;8.598;2023-05-02T06:58:17;9.50;99.90
16263;DHT22;8239;48.594;8.598;2023-05-02T07:00:44;9.70;99.90
16263;DHT22;8239;48.594;8.598;2023-05-02T07:03:13;9.90;99.90
16263;DHT22;8239;48.594;8.598;2023-05-02T07:05:40;10.10;99.90
16263;DHT22;8239;48.594;8.598;2023-05-02T07:08:07;10.20;99.90
16263;DHT22;8239;48.594;8.598;2023-05-02T07:10:35;10.30;99.90
16263;DHT22;8239;48.594;8.598;2023-05-02T07:13:02;10.40;99.90
16263;DHT22;8239;48.594;8.598;2023-05-02T07:15:30;10.50;99.90
16263;DHT22;8239;48.594;8.598;2023-05-02T07:17:57;10.70;99.90
16263;DHT22;8239;48.594;8.598;2023-05-02T07:20:24;10.90;99.90
16263;DHT22;8239;48.594;8.598;2023-05-02T07:22:51;11.00;99.90
16263;DHT22;8239;48.594;8.598;2023-05-02T07:25:18;11.30;99.90
16263;DHT22;8239;48.594;8.598;2023-05-02T07:27:45;11.50;99.90
16263;DHT22;8239;48.594;8.598;2023-05-02T07:30:12;11.70;99.90
16263;DHT22;8239;48.594;8.598;2023-05-02T07:32:41;11.90;99.90
16263;DHT22;8239;48.594;8.598;2023-05-02T07:35:08;12.20;99.90
16263;DHT22;8239;48.594;8.598;2023-05-02T07:37:35;12.40;99.90
16263;DHT22;8239;48.594;8.598;2023-05-02T07:40:02;12.60;99.90
16263;DHT22;8239;48.594;8.598;2023-05-02T07:42:30;12.70;99.90
16263;DHT22;8239;48.594;8.598;2023-05-02T07:44:57;12.80;99.90
16263;DHT22;8239;48.594;8.598;2023-05-02T07:47:25;12.80;99.90
16263;DHT22;8239;48.594;8.598;2023-05-02T07:49:54;12.80;99.90
16263;DHT22;8239;48.594;8.598;2023-05-02T07:52:21;12.80;99.90
16263;DHT22;8239;48.594;8.598;2023-05-02T07:54:48;12.80;99.90
16263;DHT22;8239;48.594;8.598;2023-05-02T07:57:15;12.80;99.90
16263;DHT22;8239;48.594;8.598;2023-05-02T07:59:42;12.90;99.90
16263;DHT22;8239;48.594;8.598;2023-05-02T08:02:09;12.90;99.90
16263;DHT22;8239;48.594;8.598;2023-05-02T08:04:38;12.80;99.90
16263;DHT22;8239;48.594;8.598;2023-05-02T08:07:06;12.70;99.90
16263;DHT22;8239;48.594;8.598;2023-05-02T08:09:33;12.60;99.90
16263;DHT22;8239;48.594;8.598;2023-05-02T08:12:00;12.50;99.90
16263;DHT22;8239;48.594;8.598;2023-05-02T08:14:28;12.40;99.90
16263;DHT22;8239;48.594;8.598;2023-05-02T08:16:55;12.40;99.90
16263;DHT22;8239;48.594;8.598;2023-05-02T08:19:22;12.40;99.90
16263;DHT22;8239;48.594;8.598;2023-05-02T08:21:49;12.60;99.90
16263;DHT22;8239;48.594;8.598;2023-05-02T08:24:17;12.80;99.90
16263;DHT22;8239;48.594;8.598;2023-05-02T08:26:44;13.10;99.90
16263;DHT22;8239;48.594;8.598;2023-05-02T08:29:11;13.50;99.90
16263;DHT22;8239;48.594;8.598;2023-05-02T08:31:38;14.00;99.90
16263;DHT22;8239;48.594;8.598;2023-05-02T08:34:05;14.80;99.90
16263;DHT22;8239;48.594;8.598;2023-05-02T08:36:32;15.70;99.90
16263;DHT22;8239;48.594;8.598;2023-05-02T08:38:59;16.50;99.90
16263;DHT22;8239;48.594;8.598;2023-05-02T08:41:28;17.20;99.90
16263;DHT22;8239;48.594;8.598;2023-05-02T08:43:56;17.70;99.90
16263;DHT22;8239;48.594;8.598;2023-05-02T08:46:23;18.10;99.90
16263;DHT22;8239;48.594;8.598;2023-05-02T08:48:51;18.40;99.90
16263;DHT22;8239;48.594;8.598;2023-05-02T08:51:22;18.70;98.70
16263;DHT22;8239;48.594;8.598;2023-05-02T08:53:51;19.00;96.60
16263;DHT22;8239;48.594;8.598;2023-05-02T08:56:18;19.10;94.10
16263;DHT22;8239;48.594;8.598;2023-05-02T08:58:47;19.00;92.10
16263;DHT22;8239;48.594;8.598;2023-05-02T09:01:15;18.70;90.70
16263;DHT22;8239;48.594;8.598;2023-05-02T09:03:44;18.30;89.20
16263;DHT22;8239;48.594;8.598;2023-05-02T09:06:14;18.00;89.90
16263;DHT22;8239;48.594;8.598;2023-05-02T09:08:44;17.70;90.00
16263;DHT22;8239;48.594;8.598;2023-05-02T09:11:14;17.50;90.40
16263;DHT22;8239;48.594;8.598;2023-05-02T09:13:42;17.50;90.30
16263;DHT22;8239;48.594;8.598;2023-05-02T09:16:12;17.70;90.80
16263;DHT22;8239;48.594;8.598;2023-05-02T09:18:40;18.10;90.90
16263;DHT22;8239;48.594;8.598;2023-05-02T09:21:09;18.70;90.00
16263;DHT22;8239;48.594;8.598;2023-05-02T09:23:38;19.30;87.20
16263;DHT22;8239;48.594;8.598;2023-05-02T09:26:15;19.90;84.50
16263;DHT22;8239;48.594;8.598;2023-05-02T09:28:44;21.00;82.60
16263;DHT22;8239;48.594;8.598;2023-05-02T09:31:14;22.40;79.10
16263;DHT22;8239;48.594;8.598;2023-05-02T09:33:42;23.60;71.70
16263;DHT22;8239;48.594;8.598;2023-05-02T09:38:38;25.70;83.20
16263;DHT22;8239;48.594;8.598;2023-05-02T09:41:06;26.50;53.60
16263;DHT22;8239;48.594;8.598;2023-05-02T09:43:33;26.90;52.10
16263;DHT22;8239;48.594;8.598;2023-05-02T09:46:01;27.60;51.40
16263;DHT22;8239;48.594;8.598;2023-05-02T09:48:31;27.80;46.50
16263;DHT22;8239;48.594;8.598;2023-05-02T09:50:59;27.70;47.40
16263;DHT22;8239;48.594;8.598;2023-05-02T09:53:27;27.10;47.60
16263;DHT22;8239;48.594;8.598;2023-05-02T09:56:02;26.30;47.80
16263;DHT22;8239;48.594;8.598;2023-05-02T09:58:29;25.20;49.70
16263;DHT22;8239;48.594;8.598;2023-05-02T10:00:57;24.30;51.20
16263;DHT22;8239;48.594;8.598;2023-05-02T10:03:25;23.80;53.60
16263;DHT22;8239;48.594;8.598;2023-05-02T10:05:55;24.00;54.50
16263;DHT22;8239;48.594;8.598;2023-05-02T10:08:24;24.30;53.10
16263;DHT22;8239;48.594;8.598;2023-05-02T10:10:54;25.00;53.00
16263;DHT22;8239;48.594;8.598;2023-05-02T10:13:23;25.90;51.10
16263;DHT22;8239;48.594;8.598;2023-05-02T10:15:58;26.80;48.90
16263;DHT22;8239;48.594;8.598;2023-05-02T10:18:28;27.40;47.30
16263;DHT22;8239;48.594;8.598;2023-05-02T10:21:04;27.30;46.70
16263;DHT22;8239;48.594;8.598;2023-05-02T10:23:34;27.10;46.90
16263;DHT22;8239;48.594;8.598;2023-05-02T10:26:01;26.40;47.00
16263;DHT22;8239;48.594;8.598;2023-05-02T10:28:29;25.70;48.20
16263;DHT22;8239;48.594;8.598;2023-05-02T10:30:57;25.40;49.00
16263;DHT22;8239;48.594;8.598;2023-05-02T10:33:27;25.60;49.40
16263;DHT22;8239;48.594;8.598;2023-05-02T10:35:56;26.00;48.60
16263;DHT22;8239;48.594;8.598;2023-05-02T10:38:25;26.70;48.30
16263;DHT22;8239;48.594;8.598;2023-05-02T10:40:57;26.90;46.80
16263;DHT22;8239;48.594;8.598;2023-05-02T10:43:32;26.10;45.10
16263;DHT22;8239;48.594;8.598;2023-05-02T10:45:59;25.40;46.00
16263;DHT22;8239;48.594;8.598;2023-05-02T10:48:28;25.20;48.10
16263;DHT22;8239;48.594;8.598;2023-05-02T10:50:56;25.50;48.60
16263;DHT22;8239;48.594;8.598;2023-05-02T10:53:29;26.30;47.00
16263;DHT22;8239;48.594;8.598;2023-05-02T10:56:16;27.00;45.30
16263;DHT22;8239;48.594;8.598;2023-05-02T10:58:46;27.90;43.50
16263;DHT22;8239;48.594;8.598;2023-05-02T11:01:36;28.70;42.30
16263;DHT22;8239;48.594;8.598;2023-05-02T11:04:10;29.40;42.00
16263;DHT22;8239;48.594;8.598;2023-05-02T11:09:39;30.40;38.40
16263;DHT22;8239;48.594;8.598;2023-05-02T11:12:06;29.50;37.70
16263;DHT22;8239;48.594;8.598;2023-05-02T11:14:48;28.40;39.20
16263;DHT22;8239;48.594;8.598;2023-05-02T11:17:16;27.00;40.80
16263;DHT22;8239;48.594;8.598;2023-05-02T11:22:57;24.90;43.40
16263;DHT22;8239;48.594;8.598;2023-05-02T11:25:39;24.00;44.80
16263;DHT22;8239;48.594;8.598;2023-05-02T11:34:38;22.10;47.20
16263;DHT22;8239;48.594;8.598;2023-05-02T11:37:10;21.80;48.20
16263;DHT22;8239;48.594;8.598;2023-05-02T11:39:38;21.60;48.70
16263;DHT22;8239;48.594;8.598;2023-05-02T11:42:06;21.30;49.90
16263;DHT22;8239;48.594;8.598;2023-05-02T11:44:35;21.20;50.50
16263;DHT22;8239;48.594;8.598;2023-05-02T11:47:19;21.00;50.60
16263;DHT22;8239;48.594;8.598;2023-05-02T11:49:46;21.00;51.10
16263;DHT22;8239;48.594;8.598;2023-05-02T11:52:14;20.90;51.50
16263;DHT22;8239;48.594;8.598;2023-05-02T11:54:41;21.20;51.90
16263;DHT22;8239;48.594;8.598;2023-05-02T11:57:10;21.90;52.30
16263;DHT22;8239;48.594;8.598;2023-05-02T11:59:51;22.70;51.90
16263;DHT22;8239;48.594;8.598;2023-05-02T12:02:18;23.10;50.40
16263;DHT22;8239;48.594;8.598;2023-05-02T12:04:45;23.20;50.30
16263;DHT22;8239;48.594;8.598;2023-05-02T12:07:12;23.00;49.80
16263;DHT22;8239;48.594;8.598;2023-05-02T12:09:49;22.80;49.70
16263;DHT22;8239;48.594;8.598;2023-05-02T12:12:20;22.60;50.90
16263;DHT22;8239;48.594;8.598;2023-05-02T12:14:48;22.70;51.40
16263;DHT22;8239;48.594;8.598;2023-05-02T12:17:16;23.40;52.20
16263;DHT22;8239;48.594;8.598;2023-05-02T12:19:44;24.10;51.50
16263;DHT22;8239;48.594;8.598;2023-05-02T12:22:11;24.60;49.90
16263;DHT22;8239;48.594;8.598;2023-05-02T12:24:39;25.20;48.90
16263;DHT22;8239;48.594;8.598;2023-05-02T12:27:09;25.60;47.60
16263;DHT22;8239;48.594;8.598;2023-05-02T12:29:41;26.00;46.00
16263;DHT22;8239;48.594;8.598;2023-05-02T12:32:09;26.30;44.80
16263;DHT22;8239;48.594;8.598;2023-05-02T12:34:37;26.30;44.30
16263;DHT22;8239;48.594;8.598;2023-05-02T12:37:06;26.10;44.70
16263;DHT22;8239;48.594;8.598;2023-05-02T12:39:34;25.90;44.70
16263;DHT22;8239;48.594;8.598;2023-05-02T12:42:08;26.30;46.00
16263;DHT22;8239;48.594;8.598;2023-05-02T12:44:36;26.70;42.60
16263;DHT22;8239;48.594;8.598;2023-05-02T12:47:06;27.10;41.40
16263;DHT22;8239;48.594;8.598;2023-05-02T12:49:47;27.50;41.20
16263;DHT22;8239;48.594;8.598;2023-05-02T12:52:14;28.10;41.80
16263;DHT22;8239;48.594;8.598;2023-05-02T12:54:41;28.40;39.80
16263;DHT22;8239;48.594;8.598;2023-05-02T12:57:09;27.90;40.20
16263;DHT22;8239;48.594;8.598;2023-05-02T12:59:37;27.00;41.10
16263;DHT22;8239;48.594;8.598;2023-05-02T13:02:06;26.00;42.60
16263;DHT22;8239;48.594;8.598;2023-05-02T13:04:34;25.10;44.00
16263;DHT22;8239;48.594;8.598;2023-05-02T13:07:01;24.70;45.40
16263;DHT22;8239;48.594;8.598;2023-05-02T13:09:29;24.50;45.80
16263;DHT22;8239;48.594;8.598;2023-05-02T13:11:56;24.50;45.50
16263;DHT22;8239;48.594;8.598;2023-05-02T13:14:24;24.10;46.30
16263;DHT22;8239;48.594;8.598;2023-05-02T13:16:51;23.60;46.50
16263;DHT22;8239;48.594;8.598;2023-05-02T13:19:21;23.00;46.80
16263;DHT22;8239;48.594;8.598;2023-05-02T13:21:48;22.20;47.70
16263;DHT22;8239;48.594;8.598;2023-05-02T13:24:15;21.60;49.20
16263;DHT22;8239;48.594;8.598;2023-05-02T13:26:43;21.10;51.10
16263;DHT22;8239;48.594;8.598;2023-05-02T13:29:10;20.80;52.30
16263;DHT22;8239;48.594;8.598;2023-05-02T13:31:37;20.50;52.10
16263;DHT22;8239;48.594;8.598;2023-05-02T13:34:04;20.40;52.80
16263;DHT22;8239;48.594;8.598;2023-05-02T13:36:32;20.40;53.20
16263;DHT22;8239;48.594;8.598;2023-05-02T13:39:00;20.60;53.60
16263;DHT22;8239;48.594;8.598;2023-05-02T13:41:29;21.50;53.40
16263;DHT22;8239;48.594;8.598;2023-05-02T13:43:56;22.70;51.50
16263;DHT22;8239;48.594;8.598;2023-05-02T13:46:22;23.80;49.30
16263;DHT22;8239;48.594;8.598;2023-05-02T13:48:50;25.10;48.30
16263;DHT22;8239;48.594;8.598;2023-05-02T13:51:17;26.30;46.90
16263;DHT22;8239;48.594;8.598;2023-05-02T13:53:45;27.40;44.50
16263;DHT22;8239;48.594;8.598;2023-05-02T13:56:12;28.20;42.60
16263;DHT22;8239;48.594;8.598;2023-05-02T13:58:39;28.90;42.10
16263;DHT22;8239;48.594;8.598;2023-05-02T14:01:06;29.50;40.10
16263;DHT22;8239;48.594;8.598;2023-05-02T14:03:33;29.70;39.20
16263;DHT22;8239;48.594;8.598;2023-05-02T14:06:00;29.10;38.10
16263;DHT22;8239;48.594;8.598;2023-05-02T14:08:27;28.00;38.40
16263;DHT22;8239;48.594;8.598;2023-05-02T14:10:56;26.90;39.80
16263;DHT22;8239;48.594;8.598;2023-05-02T14:13:23;26.20;41.70
16263;DHT22;8239;48.594;8.598;2023-05-02T14:15:51;25.40;43.10
16263;DHT22;8239;48.594;8.598;2023-05-02T14:18:18;24.60;44.50
16263;DHT22;8239;48.594;8.598;2023-05-02T14:20:45;23.80;45.40
16263;DHT22;8239;48.594;8.598;2023-05-02T14:23:13;23.00;46.20
16263;DHT22;8239;48.594;8.598;2023-05-02T14:25:45;22.50;47.40
16263;DHT22;8239;48.594;8.598;2023-05-02T14:28:14;22.00;48.80
16263;DHT22;8239;48.594;8.598;2023-05-02T14:30:41;22.10;50.60
16263;DHT22;8239;48.594;8.598;2023-05-02T14:33:08;22.70;50.60
16263;DHT22;8239;48.594;8.598;2023-05-02T14:35:35;23.40;48.40
16263;DHT22;8239;48.594;8.598;2023-05-02T14:38:03;23.60;47.10
16263;DHT22;8239;48.594;8.598;2023-05-02T14:40:30;23.30;45.50
16263;DHT22;8239;48.594;8.598;2023-05-02T14:42:57;22.70;46.60
16263;DHT22;8239;48.594;8.598;2023-05-02T14:45:26;22.50;48.10
16263;DHT22;8239;48.594;8.598;2023-05-02T14:47:53;22.50;49.50
16263;DHT22;8239;48.594;8.598;2023-05-02T14:50:20;22.60;49.30
16263;DHT22;8239;48.594;8.598;2023-05-02T14:52:47;22.80;48.50
16263;DHT22;8239;48.594;8.598;2023-05-02T14:55:14;23.10;48.30
16263;DHT22;8239;48.594;8.598;2023-05-02T14:57:41;23.30;47.80
16263;DHT22;8239;48.594;8.598;2023-05-02T15:00:09;23.60;48.00
16263;DHT22;8239;48.594;8.598;2023-05-02T15:02:38;23.80;47.80
16263;DHT22;8239;48.594;8.598;2023-05-02T15:05:06;23.90;46.30
16263;DHT22;8239;48.594;8.598;2023-05-02T15:07:36;24.00;47.10
16263;DHT22;8239;48.594;8.598;2023-05-02T15:10:04;23.80;47.00
16263;DHT22;8239;48.594;8.598;2023-05-02T15:12:31;23.80;46.90
16263;DHT22;8239;48.594;8.598;2023-05-02T15:14:58;23.60;47.30
16263;DHT22;8239;48.594;8.598;2023-05-02T15:17:25;23.70;46.30
16263;DHT22;8239;48.594;8.598;2023-05-02T15:19:53;23.60;46.00
16263;DHT22;8239;48.594;8.598;2023-05-02T15:22:21;23.60;47.00
16263;DHT22;8239;48.594;8.598;2023-05-02T15:24:50;23.70;46.50
16263;DHT22;8239;48.594;8.598;2023-05-02T15:27:17;23.40;45.90
16263;DHT22;8239;48.594;8.598;2023-05-02T15:29:44;22.90;46.20
16263;DHT22;8239;48.594;8.598;2023-05-02T15:32:12;22.60;47.60
16263;DHT22;8239;48.594;8.598;2023-05-02T15:34:39;22.10;48.20
16263;DHT22;8239;48.594;8.598;2023-05-02T15:37:10;21.60;48.60
16263;DHT22;8239;48.594;8.598;2023-05-02T15:39:37;21.10;49.20
16263;DHT22;8239;48.594;8.598;2023-05-02T15:42:05;21.00;48.60
16263;DHT22;8239;48.594;8.598;2023-05-02T15:44:33;21.10;49.70
16263;DHT22;8239;48.594;8.598;2023-05-02T15:47:02;21.30;49.10
16263;DHT22;8239;48.594;8.598;2023-05-02T15:49:29;21.50;48.70
16263;DHT22;8239;48.594;8.598;2023-05-02T15:51:59;21.70;48.40
16263;DHT22;8239;48.594;8.598;2023-05-02T15:54:30;21.70;48.60
16263;DHT22;8239;48.594;8.598;2023-05-02T15:57:05;21.90;48.30
16263;DHT22;8239;48.594;8.598;2023-05-02T15:59:32;22.50;48.00
16263;DHT22;8239;48.594;8.598;2023-05-02T16:02:00;23.10;46.30
16263;DHT22;8239;48.594;8.598;2023-05-02T16:04:27;23.50;45.80
16263;DHT22;8239;48.594;8.598;2023-05-02T16:06:54;24.00;45.70
16263;DHT22;8239;48.594;8.598;2023-05-02T16:09:21;24.70;44.80
16263;DHT22;8239;48.594;8.598;2023-05-02T16:11:49;25.50;42.90
16263;DHT22;8239;48.594;8.598;2023-05-02T16:14:16;25.90;41.90
16263;DHT22;8239;48.594;8.598;2023-05-02T16:16:43;26.00;41.00